Time;durP1;ratioP1;P1;durP2;ratioP2;P2;SDS_P1;SDS_P2;PMS_P1;PMS_P2;Temp;Humidity;BMP_temperature;BMP_pressure;BME280_temperature;BME280_humidity;BME280_pressure;Samples;Min_cycle;Max_cycle;Signal;HPM_P1;HPM_P2
2021/03/01 00:01:32;;;;;;;15.87;9.10;;;4.00;77.60;;;;;;5029028;28;20879;-39
2021/03/01 00:03:59;;;;;;;11.97;8.17;;;4.00;77.60;;;;;;5047320;28;21005;-39
2021/03/01 00:06:25;;;;;;;8.83;7.23;;;4.00;77.60;;;;;;5031754;28;20454;-39
2021/03/01 00:08:51;;;;;;;11.90;7.40;;;4.00;77.60;;;;;;5029831;28;20805;-39
2021/03/01 00:11:17;;;;;;;10.87;8.10;;;4.00;77.70;;;;;;5029564;28;20490;-39
2021/03/01 00:13:51;;;;;;;13.40;8.20;;;4.00;77.70;;;;;;5044739;28;20558;-39
2021/03/01 00:16:17;;;;;;;13.43;7.73;;;4.00;77.80;;;;;;5043044;28;20470;-39
2021/03/01 00:18:47;;;;;;;13.07;7.63;;;3.90;77.90;;;;;;5046987;28;20443;-39
2021/03/01 00:21:17;;;;;;;12.17;7.40;;;3.90;78.00;;;;;;5044052;28;20455;-39
2021/03/01 00:23:45;;;;;;;11.20;7.20;;;3.90;78.00;;;;;;5047692;28;20522;-39
2021/03/01 00:26:12;;;;;;;12.77;7.60;;;3.90;78.10;;;;;;5051482;28;20486;-39
2021/03/01 00:28:39;;;;;;;13.33;8.10;;;3.90;78.20;;;;;;5012675;28;20949;-40
2021/03/01 00:31:05;;;;;;;11.40;7.33;;;3.80;78.30;;;;;;5050084;28;20488;-39
2021/03/01 00:33:31;;;;;;;15.30;8.60;;;3.80;78.40;;;;;;5018334;28;20861;-39
2021/03/01 00:36:02;;;;;;;10.67;7.20;;;3.80;78.40;;;;;;5049517;28;20454;-39
2021/03/01 00:38:28;;;;;;;10.70;6.83;;;3.80;78.40;;;;;;5031100;28;20454;-39
2021/03/01 00:40:58;;;;;;;11.03;7.20;;;3.80;78.40;;;;;;5048879;28;20538;-39
2021/03/01 00:43:29;;;;;;;11.60;7.03;;;3.80;78.40;;;;;;5032025;28;20487;-39
2021/03/01 00:45:59;;;;;;;11.80;7.23;;;3.70;78.30;;;;;;5051374;28;20983;-39
2021/03/01 00:48:25;;;;;;;13.80;8.00;;;3.70;78.30;;;;;;5050389;28;20485;-38
2021/03/01 00:50:52;;;;;;;13.43;7.83;;;3.70;78.30;;;;;;5036172;28;20462;-38
2021/03/01 00:53:26;;;;;;;10.23;6.67;;;3.60;78.30;;;;;;5034223;28;20534;-39
2021/03/01 00:55:53;;;;;;;14.87;7.60;;;3.60;78.30;;;;;;5052600;28;20478;-39
2021/03/01 00:58:20;;;;;;;13.57;8.37;;;3.60;78.30;;;;;;5034013;28;20522;-39
2021/03/01 01:00:48;;;;;;;10.20;7.00;;;3.60;78.30;;;;;;5032973;28;20448;-39
2021/03/01 01:03:15;;;;;;;11.90;7.50;;;3.60;78.30;;;;;;5049756;28;20485;-39
2021/03/01 01:05:42;;;;;;;17.63;9.70;;;3.50;78.40;;;;;;5038034;28;20455;-39
2021/03/01 01:08:09;;;;;;;15.07;7.50;;;3.50;78.40;;;;;;5049859;28;20463;-39
2021/03/01 01:10:37;;;;;;;12.00;7.43;;;3.50;78.50;;;;;;5046666;28;21078;-39
2021/03/01 01:13:04;;;;;;;10.13;6.50;;;3.50;78.50;;;;;;5049688;28;20448;-39
2021/03/01 01:15:31;;;;;;;13.50;7.67;;;3.50;78.50;;;;;;5035969;28;20465;-39
2021/03/01 01:17:58;;;;;;;10.93;7.17;;;3.50;78.60;;;;;;5050761;28;21017;-40
2021/03/01 01:20:25;;;;;;;11.90;6.80;;;3.50;78.70;;;;;;5034234;28;20497;-39
2021/03/01 01:22:54;;;;;;;13.43;6.50;;;3.50;78.70;;;;;;5062211;28;20487;-39
2021/03/01 01:25:21;;;;;;;8.40;6.77;;;3.50;78.70;;;;;;5033621;28;20487;-40
2021/03/01 01:27:47;;;;;;;10.10;6.80;;;3.50;78.80;;;;;;5033226;28;20470;-39
2021/03/01 01:30:17;;;;;;;9.80;6.90;;;3.40;78.80;;;;;;5035315;28;20952;-39
2021/03/01 01:32:46;;;;;;;8.97;5.90;;;3.40;78.80;;;;;;5048594;28;20483;-40
2021/03/01 01:35:13;;;;;;;9.70;6.97;;;3.40;79.00;;;;;;5046365;28;20444;-40
2021/03/01 01:37:43;;;;;;;11.53;7.00;;;3.40;78.90;;;;;;5045468;28;20479;-39
2021/03/01 01:40:15;;;;;;;10.40;6.80;;;3.40;79.10;;;;;;5034694;28;20633;-39
2021/03/01 01:42:45;;;;;;;9.90;6.97;;;3.30;79.20;;;;;;5046086;28;20513;-39
2021/03/01 01:45:20;;;;;;;11.13;5.87;;;3.40;79.20;;;;;;5054523;28;20482;-39
2021/03/01 01:47:48;;;;;;;11.20;7.40;;;3.30;79.20;;;;;;5050758;28;20794;-39
2021/03/01 01:50:22;;;;;;;12.67;7.13;;;3.30;79.20;;;;;;5052722;28;20533;-40
2021/03/01 01:52:50;;;;;;;9.50;6.23;;;3.30;79.30;;;;;;5048247;28;20804;-40
2021/03/01 01:55:18;;;;;;;8.63;5.60;;;3.30;79.30;;;;;;5053303;28;20541;-40
2021/03/01 01:57:44;;;;;;;9.23;5.90;;;3.30;79.30;;;;;;5034337;28;21337;-40
2021/03/01 02:00:26;;;;;;;9.20;6.03;;;3.30;79.30;;;;;;5031045;28;20467;-40
2021/03/01 02:03:10;;;;;;;8.33;6.30;;;3.20;79.30;;;;;;5048832;28;20862;-40
2021/03/01 02:05:47;;;;;;;9.07;5.80;;;3.30;79.40;;;;;;5049623;28;20477;-40
2021/03/01 02:08:21;;;;;;;8.67;6.23;;;3.30;79.40;;;;;;5050119;28;20551;-40
2021/03/01 02:10:55;;;;;;;12.43;6.80;;;3.20;79.40;;;;;;5052053;28;20478;-40
2021/03/01 02:13:29;;;;;;;11.27;7.27;;;3.20;79.40;;;;;;5038514;28;20477;-40
2021/03/01 02:16:04;;;;;;;13.10;6.90;;;3.30;79.40;;;;;;5049527;28;20521;-40
2021/03/01 02:18:31;;;;;;;9.20;6.00;;;3.20;79.40;;;;;;5050580;28;21091;-40
2021/03/01 02:21:10;;;;;;;9.90;6.13;;;3.30;79.50;;;;;;5048840;28;20570;-40
2021/03/01 02:23:37;;;;;;;10.40;6.47;;;3.20;79.50;;;;;;5054897;28;20577;-40
2021/03/01 02:26:10;;;;;;;9.40;6.43;;;3.20;79.40;;;;;;5051160;28;20450;-40
2021/03/01 02:28:48;;;;;;;12.37;5.87;;;3.20;79.40;;;;;;5049229;28;20474;-40
2021/03/01 02:31:16;;;;;;;8.33;6.67;;;3.20;79.50;;;;;;5034932;28;20454;-40
2021/03/01 02:33:52;;;;;;;8.00;5.50;;;3.20;79.40;;;;;;5049996;28;20498;-40
2021/03/01 02:36:22;;;;;;;12.40;6.83;;;3.20;79.50;;;;;;5059310;28;20463;-40
2021/03/01 02:38:51;;;;;;;8.23;5.40;;;3.10;79.50;;;;;;5051639;28;20519;-40
2021/03/01 02:41:19;;;;;;;8.60;5.90;;;3.10;79.50;;;;;;5048092;28;20461;-40
2021/03/01 02:43:46;;;;;;;8.33;5.90;;;3.10;79.50;;;;;;5034390;28;20529;-40
2021/03/01 02:46:12;;;;;;;10.90;6.33;;;3.10;79.60;;;;;;5031867;28;20451;-40
2021/03/01 02:48:43;;;;;;;13.20;5.27;;;3.10;79.60;;;;;;5047399;28;20458;-39
2021/03/01 02:51:12;;;;;;;8.10;4.90;;;3.10;79.60;;;;;;5048753;28;20451;-40
2021/03/01 02:53:40;;;;;;;8.93;6.60;;;3.10;79.60;;;;;;5033697;28;20509;-40
2021/03/01 02:56:08;;;;;;;8.53;6.70;;;3.10;79.60;;;;;;5031132;28;20502;-40
2021/03/01 02:58:40;;;;;;;8.17;5.57;;;3.10;79.60;;;;;;5052343;28;20490;-40
2021/03/01 03:01:09;;;;;;;10.67;5.77;;;3.00;79.60;;;;;;5033075;28;20472;-40
2021/03/01 03:03:36;;;;;;;7.37;5.37;;;3.00;79.70;;;;;;5056019;28;20498;-40
2021/03/01 03:06:03;;;;;;;9.60;5.70;;;3.00;79.80;;;;;;5019208;28;20465;-40
2021/03/01 03:08:31;;;;;;;7.53;5.50;;;3.00;79.80;;;;;;5034281;28;20521;-40
2021/03/01 03:10:59;;;;;;;9.37;6.37;;;3.00;79.80;;;;;;5051447;28;20566;-40
2021/03/01 03:13:30;;;;;;;10.50;5.80;;;2.90;79.90;;;;;;5047160;28;20463;-40
2021/03/01 03:15:58;;;;;;;7.57;5.13;;;2.90;80.00;;;;;;5019274;28;20489;-40
2021/03/01 03:18:26;;;;;;;10.53;6.67;;;2.90;80.00;;;;;;5035536;28;20450;-40
2021/03/01 03:20:52;;;;;;;9.47;6.07;;;2.90;79.90;;;;;;5061841;28;20466;-40
2021/03/01 03:23:19;;;;;;;10.13;6.60;;;2.90;79.90;;;;;;5049979;28;20561;-40
2021/03/01 03:25:45;;;;;;;8.47;5.53;;;2.90;79.90;;;;;;5063355;28;20477;-40
2021/03/01 03:28:13;;;;;;;10.90;5.87;;;2.90;80.00;;;;;;5049950;28;20443;-40
2021/03/01 03:30:40;;;;;;;10.77;5.40;;;2.90;79.90;;;;;;5033287;28;21180;-40
2021/03/01 03:33:08;;;;;;;8.20;5.80;;;2.90;79.90;;;;;;5031195;28;20527;-40
2021/03/01 03:35:35;;;;;;;7.30;5.47;;;2.80;79.90;;;;;;5013970;28;20458;-40
2021/03/01 03:38:13;;;;;;;9.73;6.00;;;2.80;80.10;;;;;;5033931;28;20458;-40
2021/03/01 03:40:44;;;;;;;8.27;5.50;;;2.80;80.10;;;;;;5045960;28;20524;-40
2021/03/01 03:43:13;;;;;;;7.80;5.43;;;2.80;80.00;;;;;;5047169;28;20486;-40
2021/03/01 03:45:45;;;;;;;8.07;4.93;;;2.80;80.00;;;;;;5047299;28;20450;-41
2021/03/01 03:48:13;;;;;;;10.10;5.93;;;2.80;80.00;;;;;;5046959;28;20455;-41
2021/03/01 03:50:41;;;;;;;10.20;5.90;;;2.70;80.00;;;;;;5031513;28;20976;-41
2021/03/01 03:53:14;;;;;;;7.07;5.40;;;2.70;80.00;;;;;;5047773;28;20461;-40
2021/03/01 03:55:46;;;;;;;8.50;5.10;;;2.70;80.10;;;;;;5044657;28;20530;-40
2021/03/01 03:58:15;;;;;;;9.80;5.03;;;2.70;80.10;;;;;;5049980;28;20530;-40
2021/03/01 04:00:43;;;;;;;6.40;5.00;;;2.70;80.00;;;;;;5046759;28;20537;-41
2021/03/01 04:03:13;;;;;;;14.93;5.50;;;2.70;80.00;;;;;;5050625;28;20486;-40
2021/03/01 04:05:42;;;;;;;7.93;4.30;;;2.70;80.10;;;;;;5048912;28;20458;-40
2021/03/01 04:08:13;;;;;;;7.50;4.50;;;2.70;80.10;;;;;;5036608;28;20446;-41
2021/03/01 04:10:48;;;;;;;9.70;5.40;;;2.70;80.20;;;;;;5055483;28;20489;-41
2021/03/01 04:13:16;;;;;;;10.10;4.97;;;2.70;80.20;;;;;;5054114;28;20557;-40
2021/03/01 04:15:46;;;;;;;8.27;5.27;;;2.70;80.20;;;;;;5023307;28;20453;-41
2021/03/01 04:18:19;;;;;;;8.63;5.60;;;2.70;80.20;;;;;;5050190;28;20480;-40
2021/03/01 04:20:46;;;;;;;5.60;4.60;;;2.70;80.20;;;;;;5053340;28;20477;-40
2021/03/01 04:23:15;;;;;;;7.93;4.50;;;2.60;80.20;;;;;;5019520;28;21017;-40
2021/03/01 04:25:45;;;;;;;6.53;4.97;;;2.60;80.20;;;;;;5033046;28;20457;-40
2021/03/01 04:28:12;;;;;;;6.80;5.30;;;2.60;80.20;;;;;;5047978;28;20442;-41
2021/03/01 04:30:40;;;;;;;8.30;5.63;;;2.60;80.20;;;;;;5052655;28;20533;-40
2021/03/01 04:33:08;;;;;;;10.37;5.83;;;2.60;80.20;;;;;;5049911;28;20454;-40
2021/03/01 04:35:37;;;;;;;6.90;5.20;;;2.60;80.20;;;;;;5053003;28;20501;-40
2021/03/01 04:38:05;;;;;;;10.20;5.57;;;2.50;80.20;;;;;;5047256;28;20454;-41
2021/03/01 04:40:31;;;;;;;8.40;5.03;;;2.50;80.30;;;;;;5050867;28;20490;-40
2021/03/01 04:42:58;;;;;;;8.87;5.90;;;2.50;80.40;;;;;;5034509;28;20486;-40
2021/03/01 04:45:25;;;;;;;7.33;5.50;;;2.50;80.50;;;;;;5033402;28;20475;-40
2021/03/01 04:47:52;;;;;;;8.60;5.30;;;2.50;80.50;;;;;;5051216;28;20443;-41
2021/03/01 04:50:20;;;;;;;9.03;5.20;;;2.50;80.50;;;;;;5050049;28;21047;-40
2021/03/01 04:52:49;;;;;;;7.73;5.40;;;2.50;80.50;;;;;;5033400;28;20532;-40
2021/03/01 04:55:16;;;;;;;7.70;5.20;;;2.50;80.60;;;;;;5047656;28;20527;-40
2021/03/01 04:57:43;;;;;;;7.60;6.47;;;2.50;80.60;;;;;;5035499;28;20450;-41
2021/03/01 05:00:11;;;;;;;8.40;5.53;;;2.50;80.60;;;;;;5050201;28;20660;-40
2021/03/01 05:02:38;;;;;;;7.57;5.33;;;2.40;80.60;;;;;;5061106;28;20685;-41
2021/03/01 05:05:08;;;;;;;7.10;5.43;;;2.40;80.70;;;;;;5050401;28;21017;-41
2021/03/01 05:07:36;;;;;;;9.10;6.30;;;2.40;80.60;;;;;;5051888;28;20873;-41
2021/03/01 05:10:07;;;;;;;10.20;6.03;;;2.40;80.70;;;;;;5048650;28;20450;-41
2021/03/01 05:12:35;;;;;;;11.30;6.50;;;2.40;80.70;;;;;;5033631;28;20495;-41
2021/03/01 05:15:02;;;;;;;9.27;5.63;;;2.40;80.70;;;;;;5046435;28;20458;-41
2021/03/01 05:17:29;;;;;;;8.40;5.43;;;2.40;80.70;;;;;;5034296;28;20450;-41
2021/03/01 05:19:55;;;;;;;8.37;4.90;;;2.40;80.70;;;;;;5038028;28;20454;-41
2021/03/01 05:22:21;;;;;;;10.03;6.00;;;2.40;80.70;;;;;;5048116;28;20497;-41
2021/03/01 05:24:48;;;;;;;12.57;8.17;;;2.40;80.70;;;;;;5050529;28;20554;-41
2021/03/01 05:27:14;;;;;;;12.57;7.93;;;2.40;80.80;;;;;;5052321;28;20487;-39
2021/03/01 05:29:41;;;;;;;18.60;11.40;;;2.40;80.80;;;;;;5051066;28;20985;-40
2021/03/01 05:32:07;;;;;;;22.67;12.43;;;2.40;80.80;;;;;;5032426;28;20447;-39
2021/03/01 05:34:33;;;;;;;26.93;16.03;;;2.40;80.80;;;;;;5050801;28;20529;-40
2021/03/01 05:37:00;;;;;;;29.40;15.57;;;2.40;80.90;;;;;;5051706;28;20451;-40
2021/03/01 05:39:26;;;;;;;22.70;13.10;;;2.40;80.90;;;;;;5032650;28;21131;-39
2021/03/01 05:41:53;;;;;;;18.70;11.33;;;2.40;81.00;;;;;;5049314;28;20447;-39
2021/03/01 05:44:20;;;;;;;14.93;8.97;;;2.40;81.10;;;;;;5044796;28;21061;-39
2021/03/01 05:46:48;;;;;;;15.47;8.60;;;2.40;81.20;;;;;;5050719;28;20529;-40
2021/03/01 05:49:15;;;;;;;20.37;9.87;;;2.40;81.30;;;;;;5051734;28;21203;-40
2021/03/01 05:51:51;;;;;;;15.60;9.00;;;2.40;81.30;;;;;;5052732;28;20522;-40
2021/03/01 05:54:24;;;;;;;17.83;9.67;;;2.40;81.20;;;;;;5049696;28;20834;-40
2021/03/01 05:56:54;;;;;;;16.30;9.13;;;2.40;81.30;;;;;;5050389;28;20480;-39
2021/03/01 05:59:21;;;;;;;13.63;8.73;;;2.40;81.30;;;;;;5052837;28;20497;-40
2021/03/01 06:01:48;;;;;;;16.90;9.30;;;2.40;81.30;;;;;;5047297;28;20612;-40
2021/03/01 06:04:15;;;;;;;15.73;8.43;;;2.40;81.30;;;;;;5036899;28;20518;-40
2021/03/01 06:06:45;;;;;;;11.97;8.33;;;2.40;81.30;;;;;;5051640;28;20528;-40
2021/03/01 06:09:15;;;;;;;14.33;8.97;;;2.40;81.30;;;;;;5049029;28;20538;-40
2021/03/01 06:11:47;;;;;;;12.67;8.40;;;2.40;81.40;;;;;;5062202;28;21201;-40
2021/03/01 06:14:13;;;;;;;16.30;8.70;;;2.40;81.50;;;;;;5050483;28;20459;-40
2021/03/01 06:17:10;;;;;;;16.97;9.90;;;2.40;81.60;;;;;;5047246;28;20972;-39
2021/03/01 06:19:56;;;;;;;12.70;8.90;;;2.40;81.70;;;;;;5050777;28;20447;-40
2021/03/01 06:22:25;;;;;;;17.23;9.60;;;2.40;81.80;;;;;;5052254;28;20544;-41
2021/03/01 06:25:21;;;;;;;17.23;10.77;;;2.40;81.80;;;;;;5032869;28;20523;-40
2021/03/01 06:27:57;;;;;;;17.20;10.10;;;2.40;81.80;;;;;;5047209;28;20534;-40
2021/03/01 06:30:25;;;;;;;18.50;10.27;;;2.40;81.80;;;;;;5051770;28;20451;-40
2021/03/01 06:33:21;;;;;;;20.87;11.67;;;2.40;81.90;;;;;;5045782;28;20458;-40
2021/03/01 06:35:55;;;;;;;22.60;12.47;;;2.40;81.90;;;;;;5060107;28;20958;-40
2021/03/01 06:38:30;;;;;;;20.07;10.63;;;2.40;82.00;;;;;;5047401;28;20492;-40
2021/03/01 06:41:17;;;;;;;14.60;10.87;;;2.40;82.10;;;;;;5057735;28;20449;-40
2021/03/01 06:43:53;;;;;;;17.63;11.63;;;2.40;82.20;;;;;;5044699;28;20521;-40
2021/03/01 06:46:21;;;;;;;15.17;11.13;;;2.40;82.30;;;;;;5032803;28;20469;-40
2021/03/01 06:48:51;;;;;;;18.07;11.30;;;2.50;82.30;;;;;;5042854;28;20447;-39
2021/03/01 06:51:18;;;;;;;18.90;11.30;;;2.50;82.30;;;;;;5027732;28;20952;-39
2021/03/01 06:53:58;;;;;;;20.97;12.03;;;2.50;82.30;;;;;;5046708;28;20454;-40
2021/03/01 06:56:38;;;;;;;20.47;12.57;;;2.50;82.40;;;;;;5043009;28;20571;-39
2021/03/01 06:59:19;;;;;;;18.73;12.30;;;2.50;82.40;;;;;;5058110;28;20454;-39
2021/03/01 07:01:56;;;;;;;23.77;11.40;;;2.50;82.60;;;;;;5037989;28;20545;-40
2021/03/01 07:04:27;;;;;;;18.33;12.20;;;2.50;82.50;;;;;;5019641;28;20490;-40
2021/03/01 07:07:02;;;;;;;22.70;13.30;;;2.50;82.60;;;;;;5044697;28;20510;-39
2021/03/01 07:09:30;;;;;;;21.03;12.03;;;2.60;82.70;;;;;;5048986;28;20500;-39
2021/03/01 07:11:56;;;;;;;21.60;11.90;;;2.60;82.90;;;;;;5027550;28;20458;-40
2021/03/01 07:14:26;;;;;;;20.23;11.23;;;2.70;83.00;;;;;;5048128;28;20581;-39
2021/03/01 07:16:54;;;;;;;18.30;10.77;;;2.70;83.10;;;;;;5046612;28;20577;-39
2021/03/01 07:19:23;;;;;;;29.30;13.07;;;2.70;83.20;;;;;;5030528;28;20461;-39
2021/03/01 07:21:58;;;;;;;27.03;14.80;;;2.90;83.30;;;;;;5051927;28;20502;-39
2021/03/01 07:24:32;;;;;;;20.50;11.67;;;2.90;83.40;;;;;;5049744;28;20565;-39
2021/03/01 07:27:04;;;;;;;25.80;12.47;;;2.90;83.50;;;;;;5050876;28;21029;-39
2021/03/01 07:29:34;;;;;;;25.63;12.67;;;2.90;83.60;;;;;;5053730;28;20550;-39
2021/03/01 07:32:06;;;;;;;23.70;12.90;;;3.00;84.00;;;;;;5050062;28;20442;-39
2021/03/01 07:34:35;;;;;;;22.60;14.23;;;3.00;84.10;;;;;;5032837;28;20459;-39
2021/03/01 07:37:03;;;;;;;26.60;14.50;;;3.10;84.60;;;;;;5039231;28;20538;-39
2021/03/01 07:39:31;;;;;;;21.13;12.33;;;3.20;84.80;;;;;;5051284;28;20538;-39
2021/03/01 07:41:59;;;;;;;26.70;14.20;;;3.30;85.10;;;;;;5051179;28;20522;-39
2021/03/01 07:44:32;;;;;;;25.23;15.13;;;3.40;85.00;;;;;;5046285;28;20581;-39
2021/03/01 07:47:01;;;;;;;24.77;14.57;;;3.50;84.70;;;;;;5064202;28;20521;-39
2021/03/01 07:49:48;;;;;;;24.60;14.30;;;3.60;84.60;;;;;;5038269;28;20470;-39
2021/03/01 07:52:36;;;;;;;23.60;14.50;;;3.60;84.50;;;;;;5065153;28;20545;-39
2021/03/01 07:55:12;;;;;;;25.57;13.70;;;3.70;84.50;;;;;;5063661;28;20443;-39
2021/03/01 07:57:40;;;;;;;22.07;12.43;;;3.80;84.50;;;;;;5028649;28;20498;-39
2021/03/01 08:00:27;;;;;;;24.80;13.70;;;3.90;84.50;;;;;;5046331;28;20968;-40
2021/03/01 08:02:54;;;;;;;24.90;15.37;;;4.00;84.50;;;;;;5048240;28;20482;-39
2021/03/01 08:05:26;;;;;;;20.30;14.67;;;4.10;84.50;;;;;;5047200;28;20457;-39
2021/03/01 08:07:56;;;;;;;19.50;12.60;;;4.20;84.50;;;;;;5028527;28;20526;-40
2021/03/01 08:10:28;;;;;;;22.23;14.30;;;4.30;84.20;;;;;;5033822;28;20479;-40
2021/03/01 08:13:05;;;;;;;23.50;14.63;;;4.40;83.90;;;;;;5041640;28;20493;-40
2021/03/01 08:15:40;;;;;;;32.40;15.67;;;4.50;83.80;;;;;;5051525;28;21176;-40
2021/03/01 08:18:09;;;;;;;22.30;13.77;;;4.70;83.70;;;;;;5049018;28;20504;-40
2021/03/01 08:20:38;;;;;;;23.43;13.70;;;4.90;83.00;;;;;;5053241;28;20499;-40
2021/03/01 08:23:05;;;;;;;17.43;11.53;;;5.00;82.50;;;;;;5029633;28;20475;-40
2021/03/01 08:25:44;;;;;;;20.57;13.87;;;5.20;81.80;;;;;;5049204;28;20489;-39
2021/03/01 08:28:17;;;;;;;20.87;12.80;;;5.40;80.90;;;;;;5042350;28;20511;-40
2021/03/01 08:30:44;;;;;;;23.10;13.77;;;5.70;80.30;;;;;;5042535;28;20926;-40
2021/03/01 08:33:12;;;;;;;17.93;12.10;;;5.90;79.80;;;;;;5043215;28;20470;-40
2021/03/01 08:35:42;;;;;;;20.73;12.97;;;6.10;79.00;;;;;;5041399;28;20531;-40
2021/03/01 08:38:10;;;;;;;19.10;13.30;;;6.40;78.20;;;;;;5036727;28;20447;-40
2021/03/01 08:40:49;;;;;;;23.20;13.70;;;6.60;77.00;;;;;;5044329;28;20872;-40
2021/03/01 08:43:34;;;;;;;17.90;12.00;;;6.80;75.80;;;;;;5048715;28;20978;-40
2021/03/01 08:46:02;;;;;;;17.20;10.70;;;6.90;74.90;;;;;;5030350;28;20520;-40
2021/03/01 08:48:39;;;;;;;17.13;11.80;;;7.10;74.40;;;;;;5047489;28;20857;-40
2021/03/01 08:51:09;;;;;;;20.07;11.63;;;7.20;73.90;;;;;;5027748;28;21262;-40
2021/03/01 08:53:36;;;;;;;23.67;11.70;;;7.40;73.00;;;;;;5030338;28;20485;-40
2021/03/01 08:56:04;;;;;;;22.70;11.60;;;7.50;72.60;;;;;;5028970;28;20495;-40
2021/03/01 08:58:33;;;;;;;14.80;10.70;;;7.60;72.50;;;;;;5047075;28;21049;-40
2021/03/01 09:01:05;;;;;;;19.63;13.10;;;7.70;72.10;;;;;;5029213;28;20455;-40
2021/03/01 09:03:38;;;;;;;17.70;12.07;;;7.80;71.60;;;;;;5038244;28;20480;-40
2021/03/01 09:06:10;;;;;;;16.10;12.03;;;7.80;71.20;;;;;;5030577;28;21164;-40
2021/03/01 09:08:47;;;;;;;20.03;13.60;;;7.80;71.30;;;;;;5041867;28;20479;-40
2021/03/01 09:11:28;;;;;;;19.63;12.97;;;7.80;71.60;;;;;;5048265;28;20534;-40
2021/03/01 09:13:58;;;;;;;19.00;12.47;;;7.80;71.60;;;;;;5042021;28;20453;-40
2021/03/01 09:16:30;;;;;;;16.93;11.57;;;7.80;71.80;;;;;;5048189;28;20447;-40
2021/03/01 09:19:04;;;;;;;20.50;12.20;;;7.80;72.20;;;;;;5034432;28;20475;-40
2021/03/01 09:21:32;;;;;;;18.87;12.10;;;7.80;72.40;;;;;;5043242;28;20439;-40
2021/03/01 09:24:01;;;;;;;20.83;12.07;;;7.80;72.10;;;;;;5042427;28;20499;-40
2021/03/01 09:26:35;;;;;;;19.47;12.80;;;7.90;71.50;;;;;;5051963;28;20446;-40
2021/03/01 09:29:09;;;;;;;18.73;12.00;;;7.90;71.10;;;;;;5045203;28;20934;-40
2021/03/01 09:31:45;;;;;;;17.27;11.37;;;8.00;70.20;;;;;;5041272;28;20455;-40
2021/03/01 09:34:17;;;;;;;17.80;11.67;;;8.00;70.30;;;;;;5048462;28;20537;-40
2021/03/01 09:37:08;;;;;;;15.63;11.40;;;8.00;70.80;;;;;;5046467;28;20487;-40
2021/03/01 09:39:38;;;;;;;16.00;11.10;;;8.10;70.90;;;;;;5033446;28;20459;-40
2021/03/01 09:42:04;;;;;;;15.80;12.00;;;8.20;70.80;;;;;;5043135;28;20557;-40
2021/03/01 09:44:34;;;;;;;16.17;10.93;;;8.20;70.20;;;;;;5033163;28;20491;-40
2021/03/01 09:47:01;;;;;;;16.07;11.40;;;8.30;69.80;;;;;;5043108;28;20443;-40
2021/03/01 09:49:30;;;;;;;18.13;11.13;;;8.40;69.70;;;;;;5047367;28;20481;-40
2021/03/01 09:52:00;;;;;;;15.73;11.13;;;8.40;70.00;;;;;;5059405;28;20442;-40
2021/03/01 09:54:26;;;;;;;13.13;9.50;;;8.50;69.70;;;;;;5029858;28;20969;-40
2021/03/01 09:56:55;;;;;;;16.83;11.03;;;8.70;69.50;;;;;;5041174;28;20455;-40
2021/03/01 09:59:36;;;;;;;17.53;11.50;;;8.80;69.00;;;;;;5041969;28;20509;-40
2021/03/01 10:02:10;;;;;;;15.97;11.27;;;9.00;67.80;;;;;;5043104;28;20482;-41
2021/03/01 10:04:38;;;;;;;13.10;9.33;;;9.20;67.20;;;;;;5030300;28;20498;-40
2021/03/01 10:07:26;;;;;;;13.40;9.87;;;9.30;66.70;;;;;;5049007;28;20443;-40
2021/03/01 10:09:53;;;;;;;12.57;8.70;;;9.50;66.50;;;;;;5049046;28;20773;-40
2021/03/01 10:12:24;;;;;;;15.83;11.13;;;9.70;66.40;;;;;;5049362;28;21486;-41
2021/03/01 10:14:58;;;;;;;19.33;11.30;;;9.90;65.50;;;;;;5042108;28;20931;-41
2021/03/01 10:17:28;;;;;;;13.40;9.47;;;10.20;64.70;;;;;;5034190;28;20451;-40
2021/03/01 10:20:15;;;;;;;13.30;9.43;;;10.40;64.20;;;;;;5044515;28;20450;-40
2021/03/01 10:23:05;;;;;;;14.80;9.77;;;10.80;63.50;;;;;;5025176;28;20469;-40
2021/03/01 10:26:14;;;;;;;13.80;9.97;;;11.10;62.80;;;;;;5044605;28;20530;-40
2021/03/01 10:28:46;;;;;;;13.00;10.43;;;11.40;61.10;;;;;;5047178;28;20457;-40
2021/03/01 10:31:16;;;;;;;14.37;9.43;;;11.70;60.20;;;;;;5038258;28;20442;-41
2021/03/01 10:33:49;;;;;;;15.50;9.70;;;12.00;58.90;;;;;;5060522;28;20463;-41
2021/03/01 10:36:15;;;;;;;12.03;8.23;;;12.20;58.40;;;;;;5064054;28;20759;-41
2021/03/01 10:38:54;;;;;;;14.43;9.80;;;12.40;58.40;;;;;;5045210;28;20481;-40
2021/03/01 10:41:23;;;;;;;13.40;9.60;;;12.70;57.70;;;;;;5062667;28;20926;-40
2021/03/01 10:43:59;;;;;;;13.53;9.63;;;12.90;56.80;;;;;;5046271;28;20581;-41
2021/03/01 10:46:55;;;;;;;13.13;9.43;;;13.00;55.70;;;;;;5044345;28;20982;-40
2021/03/01 10:49:26;;;;;;;13.40;9.40;;;13.20;54.60;;;;;;5045109;28;20478;-40
2021/03/01 10:51:54;;;;;;;15.27;10.23;;;13.30;54.00;;;;;;5045475;28;20444;-41
2021/03/01 10:54:21;;;;;;;13.10;9.87;;;13.40;53.80;;;;;;5033217;28;20462;-40
2021/03/01 10:56:48;;;;;;;18.47;12.00;;;13.40;53.40;;;;;;5031467;28;20847;-40
2021/03/01 10:59:15;;;;;;;16.30;10.97;;;13.40;53.70;;;;;;5044198;28;20487;-41
2021/03/01 11:01:45;;;;;;;13.90;9.67;;;13.40;53.30;;;;;;5044308;28;20451;-40
2021/03/01 11:04:16;;;;;;;14.70;9.97;;;13.30;53.30;;;;;;5062688;28;20587;-41
2021/03/01 11:06:42;;;;;;;12.50;9.77;;;13.40;52.30;;;;;;5047142;28;20449;-40
2021/03/01 11:09:10;;;;;;;16.83;10.90;;;13.30;52.00;;;;;;5031780;28;20494;-41
2021/03/01 11:11:39;;;;;;;16.30;10.30;;;13.30;52.40;;;;;;5047719;28;20542;-40
2021/03/01 11:14:07;;;;;;;14.13;10.20;;;13.30;52.10;;;;;;5031361;28;20893;-40
2021/03/01 11:16:37;;;;;;;19.73;10.23;;;13.30;51.90;;;;;;5043170;28;20530;-42
2021/03/01 11:19:07;;;;;;;14.33;10.03;;;13.30;52.50;;;;;;5022929;28;20462;-41
2021/03/01 11:21:33;;;;;;;13.93;10.30;;;13.30;52.00;;;;;;5044882;28;20473;-41
2021/03/01 11:24:00;;;;;;;12.87;8.80;;;13.40;52.20;;;;;;5040521;28;20491;-41
2021/03/01 11:26:27;;;;;;;14.50;9.53;;;13.40;51.60;;;;;;5040380;28;20462;-41
2021/03/01 11:28:55;;;;;;;14.10;10.00;;;13.30;51.70;;;;;;5027713;28;20471;-42
2021/03/01 11:31:22;;;;;;;16.40;10.10;;;13.30;52.00;;;;;;5028699;28;20504;-42
2021/03/01 11:33:49;;;;;;;12.30;9.67;;;13.30;52.20;;;;;;5031687;28;20450;-41
2021/03/01 11:36:16;;;;;;;12.63;9.90;;;13.30;51.90;;;;;;5045769;28;20832;-41
2021/03/01 11:38:43;;;;;;;18.57;10.87;;;13.30;51.90;;;;;;5041855;28;20809;-41
2021/03/01 11:41:14;;;;;;;15.77;10.17;;;13.40;52.30;;;;;;5044760;28;20513;-42
2021/03/01 11:43:49;;;;;;;15.53;9.90;;;13.40;52.20;;;;;;5044375;28;20490;-41
2021/03/01 11:46:16;;;;;;;15.40;11.20;;;13.40;51.90;;;;;;5029350;28;20508;-41
2021/03/01 11:48:43;;;;;;;13.20;9.10;;;13.40;51.50;;;;;;5038553;28;20454;-41
2021/03/01 11:51:10;;;;;;;15.17;10.47;;;13.40;51.30;;;;;;5055199;28;20566;-38
2021/03/01 11:53:39;;;;;;;19.43;10.63;;;13.40;51.10;;;;;;5030501;28;20465;-38
2021/03/01 11:56:10;;;;;;;14.10;8.63;;;13.40;51.10;;;;;;5040518;28;20498;-38
2021/03/01 11:58:38;;;;;;;13.97;9.33;;;13.40;51.10;;;;;;5033947;28;20557;-38
2021/03/01 12:01:06;;;;;;;15.37;11.73;;;13.40;50.20;;;;;;5029673;28;20746;-38
2021/03/01 12:03:34;;;;;;;15.67;10.30;;;13.40;49.90;;;;;;5045446;28;20483;-37
2021/03/01 12:06:01;;;;;;;17.23;10.53;;;13.40;50.80;;;;;;5032702;28;20936;-37
2021/03/01 12:08:28;;;;;;;12.87;9.63;;;13.40;51.30;;;;;;5029319;28;20507;-37
2021/03/01 12:10:54;;;;;;;10.33;7.90;;;13.30;51.50;;;;;;5047983;28;20447;-38
2021/03/01 12:13:21;;;;;;;14.27;9.70;;;13.40;51.60;;;;;;5041160;28;20484;-38
2021/03/01 12:15:50;;;;;;;16.50;10.47;;;13.40;51.10;;;;;;5048618;28;21008;-38
2021/03/01 12:18:20;;;;;;;14.10;8.70;;;13.40;50.80;;;;;;5045432;28;20460;-38
2021/03/01 12:20:46;;;;;;;13.77;9.30;;;13.40;50.60;;;;;;5033582;28;20901;-38
2021/03/01 12:23:16;;;;;;;12.87;8.93;;;13.30;51.40;;;;;;5049172;28;20577;-38
2021/03/01 12:25:43;;;;;;;14.30;8.67;;;13.30;51.80;;;;;;5051103;28;20458;-38
2021/03/01 12:28:09;;;;;;;14.43;9.27;;;13.30;51.90;;;;;;5051916;28;20504;-38
2021/03/01 12:30:36;;;;;;;13.47;8.47;;;13.40;51.60;;;;;;5035583;28;20442;-38
2021/03/01 12:33:05;;;;;;;12.00;8.50;;;13.40;51.00;;;;;;5049889;28;20537;-38
2021/03/01 12:35:39;;;;;;;12.23;7.97;;;13.40;51.90;;;;;;5044091;28;20448;-38
2021/03/01 12:38:06;;;;;;;14.10;8.30;;;13.40;51.50;;;;;;5045837;28;20451;-38
2021/03/01 12:40:33;;;;;;;11.60;8.57;;;13.40;50.90;;;;;;5051125;28;20450;-37
2021/03/01 12:43:01;;;;;;;12.93;8.43;;;13.50;51.00;;;;;;5048340;28;20927;-37
2021/03/01 12:45:28;;;;;;;13.93;8.67;;;13.50;51.00;;;;;;5047771;28;20458;-37
2021/03/01 12:47:57;;;;;;;12.53;9.03;;;13.50;52.30;;;;;;5049506;28;20877;-37
2021/03/01 12:50:25;;;;;;;10.63;7.67;;;13.60;52.60;;;;;;5051031;28;20850;-37
2021/03/01 12:52:51;;;;;;;14.77;9.07;;;13.70;51.70;;;;;;5049176;28;20451;-37
2021/03/01 12:55:22;;;;;;;10.40;7.50;;;13.80;51.60;;;;;;5046442;28;20547;-37
2021/03/01 12:57:48;;;;;;;12.37;8.13;;;13.90;50.80;;;;;;5032163;28;20460;-37
2021/03/01 13:00:15;;;;;;;13.03;8.47;;;13.90;50.70;;;;;;5035533;28;20462;-38